Time;durP1;ratioP1;P1;durP2;ratioP2;P2;SDS_P1;SDS_P2;PMS_P1;PMS_P2;Temp;Humidity;BMP_temperature;BMP_pressure;BME280_temperature;BME280_humidity;BME280_pressure;Samples;Min_cycle;Max_cycle;Signal;HPM_P1;HPM_P2
2021/05/08 00:00:26;;;;;;;13.53;4.17;;;;;;;3.88;75.05;100396.06;125904;1102;22913;-59
2021/05/08 00:03:13;;;;;;;15.33;5.07;;;;;;;3.88;74.71;100390.55;125944;1096;26401;-57
2021/05/08 00:05:43;;;;;;;13.80;4.77;;;;;;;3.86;75.27;100395.72;125957;1102;22714;-58
2021/05/08 00:08:12;;;;;;;16.80;5.03;;;;;;;3.86;75.07;100393.74;126144;1101;22837;-58
2021/05/08 00:10:42;;;;;;;15.50;5.47;;;;;;;3.85;74.99;100400.45;126240;1102;23267;-58
2021/05/08 00:13:12;;;;;;;16.75;5.30;;;;;;;3.84;75.17;100395.38;125942;1104;22754;-58
2021/05/08 00:15:41;;;;;;;14.43;4.97;;;;;;;3.83;74.98;100399.33;126055;1104;22764;-58
2021/05/08 00:18:10;;;;;;;12.20;3.55;;;;;;;3.82;74.97;100409.62;126044;1104;23223;-57
2021/05/08 00:20:40;;;;;;;10.67;2.90;;;;;;;3.79;75.19;100404.16;126015;1104;22751;-60
2021/05/08 00:23:10;;;;;;;9.43;1.93;;;;;;;3.78;75.11;100402.61;126056;1096;22763;-59
2021/05/08 00:25:39;;;;;;;10.18;2.85;;;;;;;3.77;75.57;100401.83;126045;1096;22775;-58
2021/05/08 00:28:08;;;;;;;12.80;3.03;;;;;;;3.74;75.30;100408.23;125985;1096;22731;-58
2021/05/08 00:30:38;;;;;;;9.50;2.50;;;;;;;3.73;75.70;100406.66;126122;1102;24114;-58
2021/05/08 00:33:08;;;;;;;11.23;3.17;;;;;;;3.74;75.39;100410.98;125903;1096;26253;-61
2021/05/08 00:35:37;;;;;;;12.15;3.13;;;;;;;3.72;75.54;100405.12;125975;1101;22771;-59
2021/05/08 00:38:07;;;;;;;9.53;2.70;;;;;;;3.70;75.57;100412.27;125980;1104;22728;-58
2021/05/08 00:40:37;;;;;;;8.43;2.35;;;;;;;3.68;75.66;100420.20;126058;1104;22736;-58
2021/05/08 00:43:06;;;;;;;7.10;2.40;;;;;;;3.66;75.76;100423.37;125965;1096;23204;-59
2021/05/08 00:45:36;;;;;;;8.13;2.20;;;;;;;3.63;75.75;100421.48;126036;1104;22744;-58
2021/05/08 00:48:10;;;;;;;8.57;2.13;;;;;;;3.62;75.67;100417.15;125862;1096;26247;-61
2021/05/08 00:50:40;;;;;;;7.17;2.00;;;;;;;3.59;75.85;100414.47;126064;1104;22896;-58
2021/05/08 00:53:10;;;;;;;10.40;2.90;;;;;;;3.58;76.00;100415.69;125951;1102;22926;-60
2021/05/08 00:55:40;;;;;;;8.40;2.50;;;;;;;3.54;76.03;100421.27;126007;1096;26241;-58
2021/05/08 00:58:09;;;;;;;9.28;3.10;;;;;;;3.53;76.01;100424.47;125978;1102;22713;-60
2021/05/08 01:00:39;;;;;;;11.50;3.00;;;;;;;3.51;76.19;100422.14;125940;1101;22743;-56
2021/05/08 01:03:09;;;;;;;9.70;2.70;;;;;;;3.48;76.30;100422.98;126228;1096;27611;-59
2021/05/08 01:05:39;;;;;;;10.50;2.85;;;;;;;3.48;76.02;100427.71;126064;1096;23279;-59
2021/05/08 01:08:08;;;;;;;11.65;3.38;;;;;;;3.46;75.99;100419.08;125966;1096;24581;-58
2021/05/08 01:10:37;;;;;;;14.03;3.27;;;;;;;3.45;76.11;100425.82;126260;1101;22750;-59
2021/05/08 01:13:07;;;;;;;12.90;2.95;;;;;;;3.45;76.06;100432.13;126134;1096;24446;-58
2021/05/08 01:15:36;;;;;;;12.63;3.20;;;;;;;3.44;76.20;100427.01;125900;1102;22702;-59
2021/05/08 01:18:06;;;;;;;11.25;3.00;;;;;;;3.43;76.00;100426.25;125947;1097;27314;-62
2021/05/08 01:20:36;;;;;;;9.53;2.47;;;;;;;3.43;76.04;100422.71;126293;1101;22751;-60
2021/05/08 01:23:06;;;;;;;10.75;2.45;;;;;;;3.41;76.07;100428.66;126448;1104;22913;-60
2021/05/08 01:25:35;;;;;;;8.53;2.33;;;;;;;3.38;76.11;100429.50;126916;1096;23756;-60
2021/05/08 01:28:05;;;;;;;10.93;2.60;;;;;;;3.39;76.12;100433.05;126629;1096;25758;-60
2021/05/08 01:30:38;;;;;;;9.87;2.50;;;;;;;3.38;76.04;100437.78;126052;1096;22729;-59
2021/05/08 01:33:08;;;;;;;14.60;2.50;;;;;;;3.38;76.06;100435.02;126058;1102;22874;-58
2021/05/08 01:35:38;;;;;;;10.85;2.85;;;;;;;3.36;75.86;100440.19;126046;1101;23043;-59
2021/05/08 01:38:08;;;;;;;10.65;2.55;;;;;;;3.33;75.89;100430.02;126018;1096;25761;-61
2021/05/08 01:40:37;;;;;;;;;;;;;;;3.32;75.90;100441.45;126120;1102;22785;-58
2021/05/08 01:43:07;;;;;;;7.37;1.97;;;;;;;3.28;75.86;100438.78;126100;1096;23369;-58
2021/05/08 01:45:38;;;;;;;9.33;2.27;;;;;;;3.26;76.09;100452.22;126165;1101;22751;-59
2021/05/08 01:48:10;;;;;;;8.90;2.10;;;;;;;3.24;76.00;100449.89;126249;1096;25742;-58
2021/05/08 01:50:39;;;;;;;8.27;1.90;;;;;;;3.21;75.69;100453.48;126400;1101;22913;-57
2021/05/08 01:53:08;;;;;;;9.43;1.93;;;;;;;3.17;75.60;100450.02;126215;1101;22750;-58
2021/05/08 01:55:38;;;;;;;10.00;2.20;;;;;;;3.14;75.60;100458.38;125964;1096;26171;-60
2021/05/08 01:58:08;;;;;;;6.70;1.80;;;;;;;3.13;75.68;100459.56;126624;1096;27138;-55
2021/05/08 02:00:40;;;;;;;8.73;2.03;;;;;;;3.10;75.28;100460.42;126212;1101;23708;-57
2021/05/08 02:03:10;;;;;;;11.90;2.60;;;;;;;3.06;75.94;100463.23;126142;1101;22820;-59
2021/05/08 02:05:42;;;;;;;10.90;2.70;;;;;;;3.03;75.99;100468.81;126349;1097;25566;-58
2021/05/08 02:08:12;;;;;;;10.53;2.58;;;;;;;3.00;75.97;100459.41;126300;1097;22748;-58
2021/05/08 02:10:44;;;;;;;9.50;3.25;;;;;;;3.00;76.19;100464.92;126276;1096;22754;-58
2021/05/08 02:13:14;;;;;;;9.07;2.20;;;;;;;2.99;76.22;100462.59;126087;1101;22725;-56
2021/05/08 02:15:44;;;;;;;10.10;2.40;;;;;;;2.98;76.01;100467.32;126320;1096;22772;-58
2021/05/08 02:18:13;;;;;;;7.83;1.90;;;;;;;2.96;76.13;100466.20;126271;1096;27176;-58
2021/05/08 02:20:45;;;;;;;10.60;2.05;;;;;;;2.95;76.03;100472.91;126112;1096;25764;-58
2021/05/08 02:23:17;;;;;;;9.67;2.03;;;;;;;2.92;76.08;100474.52;126098;1097;22767;-58
2021/05/08 02:25:47;;;;;;;8.90;2.10;;;;;;;2.90;75.83;100471.41;126403;1097;27198;-59
2021/05/08 02:28:16;;;;;;;10.03;1.90;;;;;;;2.89;75.99;100475.38;126328;1097;26255;-61
2021/05/08 02:30:46;;;;;;;10.07;2.23;;;;;;;2.85;75.77;100477.42;125958;1104;22763;-57
2021/05/08 02:33:16;;;;;;;10.63;1.80;;;;;;;2.83;75.85;100476.28;126175;1101;23160;-58
2021/05/08 02:35:46;;;;;;;10.75;2.63;;;;;;;2.79;76.08;100470.84;126186;1101;22777;-58
2021/05/08 02:38:15;;;;;;;8.45;1.90;;;;;;;2.78;76.20;100476.75;126096;1096;22747;-58
2021/05/08 02:40:46;;;;;;;8.30;2.67;;;;;;;2.80;76.12;100474.36;126070;1101;22750;-58
2021/05/08 02:43:16;;;;;;;10.73;2.13;;;;;;;2.78;76.23;100480.30;126055;1104;22892;-58
2021/05/08 02:45:45;;;;;;;12.33;2.20;;;;;;;2.77;76.07;100477.97;126126;1101;22800;-56
2021/05/08 02:48:15;;;;;;;10.40;2.30;;;;;;;2.76;76.25;100484.67;126201;1096;27447;-60
2021/05/08 02:50:44;;;;;;;9.08;2.30;;;;;;;2.75;76.39;100486.64;126044;1096;27176;-60
2021/05/08 02:53:13;;;;;;;9.03;2.30;;;;;;;2.75;76.27;100499.66;125984;1102;22916;-58
2021/05/08 02:55:42;;;;;;;8.93;2.17;;;;;;;2.75;76.43;100499.66;126143;1101;23188;-59
2021/05/08 02:58:12;;;;;;;7.00;2.00;;;;;;;2.73;76.42;100491.03;126157;1101;22757;-58
2021/05/08 03:00:41;;;;;;;8.57;2.37;;;;;;;2.72;76.20;100494.98;126281;1094;22767;-58
2021/05/08 03:03:10;;;;;;;10.80;2.40;;;;;;;2.70;76.18;100489.89;126406;1101;22817;-56
2021/05/08 03:05:40;;;;;;;10.13;2.43;;;;;;;2.69;76.33;100488.31;126341;1101;22759;-59
2021/05/08 03:08:10;;;;;;;7.28;1.90;;;;;;;2.68;76.06;100489.53;126197;1101;22775;-58
2021/05/08 03:10:39;;;;;;;9.77;2.17;;;;;;;2.66;76.24;100499.41;126142;1101;22767;-59
2021/05/08 03:13:08;;;;;;;11.37;2.30;;;;;;;2.64;76.32;100493.54;126220;1096;27548;-58
2021/05/08 03:15:38;;;;;;;9.55;2.50;;;;;;;2.63;76.35;100490.00;126223;1097;22771;-60
2021/05/08 03:18:08;;;;;;;12.03;2.48;;;;;;;2.64;76.67;100496.30;125850;1096;25983;-58
2021/05/08 03:20:39;;;;;;;10.28;2.78;;;;;;;2.65;76.58;100498.63;125683;1096;27170;-57
2021/05/08 03:23:08;;;;;;;11.00;2.87;;;;;;;2.66;76.77;100502.95;125830;1101;22761;-59
2021/05/08 03:25:37;;;;;;;9.80;2.77;;;;;;;2.68;76.81;100502.53;126118;1101;22708;-59
2021/05/08 03:28:07;;;;;;;11.33;2.50;;;;;;;2.69;76.87;100501.34;125981;1096;22767;-60
2021/05/08 03:30:36;;;;;;;9.47;2.33;;;;;;;2.71;76.87;100509.97;125978;1104;22933;-58
2021/05/08 03:33:06;;;;;;;13.33;2.97;;;;;;;2.73;76.75;100513.84;126008;1101;22838;-62
2021/05/08 03:35:35;;;;;;;9.07;2.27;;;;;;;2.75;76.92;100510.69;126005;1096;27110;-60
2021/05/08 03:38:05;;;;;;;12.17;3.20;;;;;;;2.76;77.04;100513.02;126370;1096;25704;-60
2021/05/08 03:40:34;;;;;;;9.50;2.57;;;;;;;2.80;77.00;100508.22;126197;1101;23709;-59
2021/05/08 03:43:03;;;;;;;12.30;3.40;;;;;;;2.83;76.99;100514.88;126026;1096;27362;-58
2021/05/08 03:45:33;;;;;;;12.80;2.40;;;;;;;2.87;77.32;100515.60;126015;1102;22726;-60
2021/05/08 03:48:02;;;;;;;11.50;3.10;;;;;;;2.90;77.59;100523.02;126170;1096;22769;-60
2021/05/08 03:50:32;;;;;;;11.53;3.13;;;;;;;2.94;77.45;100523.73;126041;1096;22841;-59
2021/05/08 03:53:01;;;;;;;11.13;3.57;;;;;;;2.98;77.34;100524.48;126042;1096;25761;-56
2021/05/08 03:55:34;;;;;;;13.07;3.23;;;;;;;3.02;77.46;100528.70;125950;1104;22744;-59
2021/05/08 03:58:03;;;;;;;8.90;2.30;;;;;;;3.07;77.47;100525.48;126107;1096;22750;-62
2021/05/08 04:00:34;;;;;;;14.03;2.93;;;;;;;3.13;77.46;100529.31;126430;1097;27173;-61
2021/05/08 04:03:04;;;;;;;13.73;3.30;;;;;;;3.19;77.67;100522.10;126437;1101;22771;-61
2021/05/08 04:05:33;;;;;;;10.83;2.98;;;;;;;3.23;77.41;100519.27;126343;1101;22774;-62
2021/05/08 04:08:03;;;;;;;10.53;3.03;;;;;;;3.26;77.24;100534.99;126428;1101;22751;-59
2021/05/08 04:10:32;;;;;;;14.80;3.20;;;;;;;3.29;77.58;100534.13;126495;1101;22731;-60
2021/05/08 04:13:02;;;;;;;9.70;3.15;;;;;;;3.32;77.29;100532.52;126387;1101;22885;-61
2021/05/08 04:15:32;;;;;;;11.33;2.90;;;;;;;3.31;77.44;100528.97;126539;1096;27380;-61
2021/05/08 04:18:01;;;;;;;11.40;3.07;;;;;;;3.34;77.16;100538.39;126387;1096;25748;-59
2021/05/08 04:20:31;;;;;;;10.38;2.85;;;;;;;3.35;77.34;100539.96;126343;1096;27587;-60
2021/05/08 04:23:00;;;;;;;11.80;3.17;;;;;;;;;;126392;1101;22728;-60
2021/05/08 04:25:30;;;;;;;11.73;2.50;;;;;;;3.41;77.30;100552.06;126439;1101;22734;-59
2021/05/08 04:28:00;;;;;;;12.15;3.10;;;;;;;3.44;77.56;100553.96;126362;1096;22775;-61
2021/05/08 04:30:32;;;;;;;13.17;3.30;;;;;;;3.48;77.49;100552.70;126221;1104;22777;-60
2021/05/08 04:33:01;;;;;;;11.20;3.43;;;;;;;3.51;77.51;100560.14;126041;1102;22767;-61
2021/05/08 04:35:31;;;;;;;16.10;3.58;;;;;;;3.53;77.39;100556.95;125939;1096;22809;-59
2021/05/08 04:38:05;;;;;;;10.93;3.20;;;;;;;3.56;77.43;100559.64;126054;1096;25816;-61
2021/05/08 04:40:34;;;;;;;13.20;3.73;;;;;;;3.57;77.35;100555.69;125920;1096;24392;-61
2021/05/08 04:43:04;;;;;;;12.97;3.57;;;;;;;3.59;77.36;100569.84;126118;1104;22764;-59
2021/05/08 04:45:34;;;;;;;11.38;3.70;;;;;;;3.61;77.42;100558.38;126212;1101;22797;-61
2021/05/08 04:48:04;;;;;;;11.13;3.33;;;;;;;3.62;77.29;100557.19;126673;1101;22751;-58
2021/05/08 04:50:33;;;;;;;15.65;3.80;;;;;;;3.65;77.34;100559.87;126347;1102;22835;-59
2021/05/08 04:53:02;;;;;;;11.60;2.97;;;;;;;3.69;77.48;100559.79;126238;1097;27120;-60
2021/05/08 04:55:32;;;;;;;10.75;3.35;;;;;;;3.74;77.41;100562.86;126369;1101;22771;-61
2021/05/08 04:58:08;;;;;;;10.75;3.45;;;;;;;3.80;77.77;100565.89;126218;1101;22744;-60
2021/05/08 05:00:37;;;;;;;9.47;3.70;;;;;;;3.87;77.93;100563.75;126479;1097;23274;-58
2021/05/08 05:03:07;;;;;;;13.60;3.83;;;;;;;3.97;78.02;100567.52;126441;1101;22745;-59
2021/05/08 05:05:37;;;;;;;14.30;3.93;;;;;;;4.06;78.15;100567.70;126481;1101;23204;-61
2021/05/08 05:08:06;;;;;;;15.70;4.53;;;;;;;4.16;78.24;100574.98;126494;1101;22769;-61
2021/05/08 05:10:36;;;;;;;14.30;3.93;;;;;;;4.26;78.37;100570.45;126144;1101;22728;-61
2021/05/08 05:13:05;;;;;;;15.00;4.25;;;;;;;4.38;78.34;100569.78;126306;1101;22763;-63
2021/05/08 05:15:35;;;;;;;11.40;3.67;;;;;;;4.51;78.35;100578.97;126160;1101;22768;-59
2021/05/08 05:18:06;;;;;;;13.30;3.80;;;;;;;4.65;78.39;100578.64;126053;1102;22772;-60
2021/05/08 05:20:35;;;;;;;14.07;4.13;;;;;;;4.79;78.38;100575.53;126222;1104;22765;-61
2021/05/08 05:23:06;;;;;;;8.53;2.80;;;;;;;4.98;78.12;100585.75;126037;1104;22841;-61
2021/05/08 05:25:36;;;;;;;10.67;3.43;;;;;;;5.15;77.79;100583.75;126222;1096;22717;-59
2021/05/08 05:28:18;;;;;;;9.90;2.55;;;;;;;5.31;77.52;100581.73;126220;1104;22775;-60
2021/05/08 05:30:48;;;;;;;10.63;2.97;;;;;;;5.48;76.92;100576.95;126012;1101;22871;-59
2021/05/08 05:33:17;;;;;;;12.97;3.30;;;;;;;5.65;76.54;100576.45;126258;1096;26280;-60
2021/05/08 05:35:48;;;;;;;11.85;3.10;;;;;;;5.82;76.17;100579.17;126129;1096;22977;-60
2021/05/08 05:38:17;;;;;;;;;;;;;;;5.98;75.65;100587.47;126309;1101;23193;-59
2021/05/08 05:40:47;;;;;;;9.93;2.17;;;;;;;6.12;75.01;100592.60;126340;1101;21474;-60
2021/05/08 05:43:17;;;;;;;9.20;2.80;;;;;;;6.26;75.02;100592.96;125996;1096;28307;-61
2021/05/08 05:45:47;;;;;;;10.58;2.73;;;;;;;6.38;75.10;100596.95;126220;1101;22754;-62
2021/05/08 05:48:17;;;;;;;8.10;2.30;;;;;;;6.51;74.28;100603.31;127984;1101;22750;-62
2021/05/08 05:50:48;;;;;;;13.30;2.10;;;;;;;6.61;74.18;100607.75;127549;1102;22777;-62
2021/05/08 05:53:18;;;;;;;11.93;2.58;;;;;;;6.71;74.24;100603.08;127535;1101;22821;-61
2021/05/08 05:55:48;;;;;;;9.03;2.57;;;;;;;6.84;74.18;100603.86;126414;1101;22767;-61
2021/05/08 05:58:17;;;;;;;7.70;1.70;;;;;;;6.96;73.23;100608.63;126146;1096;25992;-61
2021/05/08 06:00:47;;;;;;;7.37;1.77;;;;;;;7.05;72.76;100605.96;126348;1102;22744;-62
2021/05/08 06:03:16;;;;;;;7.73;2.13;;;;;;;7.13;72.84;100613.61;126364;1096;22907;-61
2021/05/08 06:05:46;;;;;;;6.45;1.70;;;;;;;7.26;72.04;100614.34;126148;1097;23686;-60
2021/05/08 06:08:15;;;;;;;7.57;2.30;;;;;;;7.36;72.19;100604.13;125962;1101;22745;-61
2021/05/08 06:10:45;;;;;;;9.78;2.65;;;;;;;7.45;71.60;100611.77;126276;1101;23587;-61
2021/05/08 06:13:15;;;;;;;8.08;2.00;;;;;;;7.54;71.74;100609.84;126158;1101;22806;-61
2021/05/08 06:15:46;;;;;;;8.60;2.05;;;;;;;7.61;71.21;100614.38;126244;1101;22757;-61
2021/05/08 06:18:16;;;;;;;9.30;2.37;;;;;;;7.68;71.53;100619.67;126236;1101;22863;-62
2021/05/08 06:20:45;;;;;;;7.63;2.00;;;;;;;7.74;70.65;100621.44;126373;1097;22760;-61
2021/05/08 06:23:14;;;;;;;7.67;1.87;;;;;;;7.81;71.34;100617.63;126162;1101;22751;-62
2021/05/08 06:25:44;;;;;;;9.17;2.30;;;;;;;7.89;71.23;100618.93;126136;1097;22913;-62
2021/05/08 06:28:13;;;;;;;6.50;1.90;;;;;;;7.96;70.69;100627.03;125998;1101;23235;-62
2021/05/08 06:30:43;;;;;;;11.97;2.53;;;;;;;8.02;70.63;100623.22;126131;1097;27316;-60
2021/05/08 06:33:12;;;;;;;10.00;2.25;;;;;;;8.09;69.56;100620.16;126304;1096;26247;-62
2021/05/08 06:35:42;;;;;;;9.90;2.30;;;;;;;8.11;69.32;100622.52;126097;1101;22735;-60
2021/05/08 06:38:11;;;;;;;7.13;1.70;;;;;;;8.16;69.83;100624.70;126182;1096;26245;-62
2021/05/08 06:40:41;;;;;;;8.70;1.83;;;;;;;8.23;69.50;100623.66;126352;1101;22822;-66
2021/05/08 06:43:11;;;;;;;6.90;1.95;;;;;;;8.27;69.71;100624.33;126126;1096;24127;-63
2021/05/08 06:45:41;;;;;;;5.93;1.60;;;;;;;8.35;69.40;100618.05;126216;1101;23480;-63
2021/05/08 06:48:15;;;;;;;7.77;1.97;;;;;;;8.46;69.17;100631.56;126049;1101;22864;-63
2021/05/08 06:50:47;;;;;;;8.27;1.97;;;;;;;8.58;69.03;100628.70;126175;1103;22743;-62
2021/05/08 06:53:17;;;;;;;6.03;1.60;;;;;;;8.62;68.80;100629.34;125978;1096;22775;-62
2021/05/08 06:55:47;;;;;;;7.03;1.90;;;;;;;8.67;68.65;100633.54;125999;1096;22754;-61
2021/05/08 06:58:16;;;;;;;7.00;1.80;;;;;;;8.75;68.37;100624.43;126114;1096;24391;-63
2021/05/08 07:00:46;;;;;;;7.23;2.07;;;;;;;8.79;68.48;100627.84;126218;1101;22772;-63
2021/05/08 07:03:16;;;;;;;10.40;2.27;;;;;;;8.88;68.21;100627.11;126140;1101;22918;-60
2021/05/08 07:05:45;;;;;;;7.25;1.70;;;;;;;8.92;67.00;100645.23;126295;1102;22782;-62
2021/05/08 07:08:15;;;;;;;6.17;1.77;;;;;;;8.93;67.24;100635.66;126105;1101;22800;-61
2021/05/08 07:58:37;;;;;;;5.73;1.37;;;;;;;9.90;63.26;100645.13;125213;1104;22822;-62
2021/05/08 08:01:06;;;;;;;6.18;1.50;;;;;;;9.96;62.53;100642.48;125402;1104;22910;-62
2021/05/08 08:03:36;;;;;;;7.17;1.53;;;;;;;10.04;62.11;100652.88;125537;1102;22748;-62
2021/05/08 08:06:06;;;;;;;12.60;1.90;;;;;;;10.11;62.32;100638.66;125163;1096;22744;-62
2021/05/08 08:08:37;;;;;;;5.17;1.20;;;;;;;10.21;61.92;100636.63;125453;1104;22741;-62
2021/05/08 08:11:07;;;;;;;7.63;1.40;;;;;;;10.32;61.80;100634.13;125906;1104;22768;-62
2021/05/08 08:13:36;;;;;;;9.43;1.70;;;;;;;10.37;61.05;100648.22;125585;1104;22810;-62
2021/05/08 08:16:07;;;;;;;5.33;1.53;;;;;;;10.39;60.96;100650.53;125502;1096;26092;-61
2021/05/08 08:18:37;;;;;;;8.63;1.80;;;;;;;10.51;61.27;100650.36;125544;1104;24840;-63
2021/05/08 08:21:07;;;;;;;6.70;1.30;;;;;;;10.54;59.11;100662.61;125528;1104;22786;-62
2021/05/08 08:23:36;;;;;;;6.58;1.45;;;;;;;10.51;59.03;100655.19;125596;1096;24599;-62
2021/05/08 08:26:05;;;;;;;8.00;1.50;;;;;;;10.45;58.48;100663.41;125461;1104;22748;-62
2021/05/08 08:28:35;;;;;;;5.50;1.30;;;;;;;10.37;58.18;100672.56;125608;1104;22812;-62
2021/05/08 08:31:05;;;;;;;8.30;2.00;;;;;;;10.37;58.44;100664.97;125538;1104;24174;-63
2021/05/08 08:33:34;;;;;;;5.03;1.50;;;;;;;10.37;58.32;100666.98;125576;1104;23581;-63
2021/05/08 08:36:05;;;;;;;5.73;1.30;;;;;;;10.37;58.57;100670.55;125511;1102;22810;-62
2021/05/08 08:38:38;;;;;;;6.60;1.43;;;;;;;10.37;57.76;100666.98;125632;1096;28191;-62
2021/05/08 08:41:07;;;;;;;5.47;1.37;;;;;;;10.35;56.89;100656.29;125475;1096;25982;-62
2021/05/08 08:43:38;;;;;;;4.90;1.33;;;;;;;10.30;57.23;100656.94;125502;1096;26140;-63
2021/05/08 08:46:07;;;;;;;5.30;1.47;;;;;;;10.34;57.67;100646.38;125538;1096;25874;-62
2021/05/08 08:48:37;;;;;;;6.03;1.38;;;;;;;10.38;57.25;100655.37;125486;1096;26037;-63
2021/05/08 08:51:07;;;;;;;4.13;1.17;;;;;;;10.39;56.99;100659.69;125809;1104;22877;-61
2021/05/08 08:53:37;;;;;;;6.08;1.40;;;;;;;10.36;56.91;100660.64;125684;1104;23190;-62
2021/05/08 08:56:07;;;;;;;4.98;1.20;;;;;;;10.34;56.57;100662.34;125513;1104;22893;-62
2021/05/08 08:58:42;;;;;;;5.90;1.37;;;;;;;10.29;55.97;100668.55;125557;1104;22829;-63
2021/05/08 09:01:12;;;;;;;6.80;1.53;;;;;;;10.21;56.54;100665.30;125549;1096;22748;-62
2021/05/08 09:03:42;;;;;;;6.57;1.20;;;;;;;10.25;56.83;100656.77;125426;1104;22830;-62
2021/05/08 09:06:14;;;;;;;4.05;1.00;;;;;;;10.38;55.66;100654.59;125256;1104;22733;-62
2021/05/08 09:08:43;;;;;;;3.73;1.00;;;;;;;10.50;54.50;100648.83;126386;1104;22819;-62
2021/05/08 09:11:21;;;;;;;3.77;0.87;;;;;;;10.65;55.42;100650.95;125284;1104;22781;-62
2021/05/08 09:14:12;;;;;;;5.97;1.27;;;;;;;10.82;54.96;100652.15;128714;1104;22817;-63
2021/05/08 09:17:03;;;;;;;8.30;1.30;;;;;;;10.99;55.50;100648.50;125878;1104;22945;-62
2021/05/08 09:19:33;;;;;;;6.47;1.33;;;;;;;11.15;53.89;100656.49;125675;1096;26037;-62
2021/05/08 09:22:25;;;;;;;5.00;1.30;;;;;;;11.26;54.08;100659.55;125465;1104;25466;-63
2021/05/08 09:24:59;;;;;;;4.27;1.33;;;;;;;11.34;53.21;100655.16;125587;1097;25826;-61
2021/05/08 09:27:44;;;;;;;7.07;1.37;;;;;;;11.42;53.44;100661.19;125584;1104;22866;-62
2021/05/08 09:30:22;;;;;;;6.40;1.63;;;;;;;11.37;51.15;100662.61;125563;1104;22793;-62
2021/05/08 09:32:58;;;;;;;8.10;2.07;;;;;;;11.30;52.05;100659.37;125539;1104;22903;-62
2021/05/08 09:35:30;;;;;;;6.97;1.43;;;;;;;11.29;52.59;100655.82;125693;1096;26260;-64
2021/05/08 09:38:10;;;;;;;5.60;1.55;;;;;;;11.31;51.63;100652.55;125615;1096;22867;-62
2021/05/08 09:40:42;;;;;;;7.07;2.00;;;;;;;11.37;50.93;100662.61;125599;1104;22965;-62
2021/05/08 09:43:14;;;;;;;4.87;1.43;;;;;;;11.42;51.07;100655.59;125601;1104;22728;-61
2021/05/08 09:45:47;;;;;;;6.20;1.43;;;;;;;11.45;51.59;100654.63;125612;1096;26466;-62
2021/05/08 09:48:21;;;;;;;9.47;1.67;;;;;;;11.53;49.80;100649.45;125540;1104;22741;-62
2021/05/08 09:50:51;;;;;;;4.73;1.40;;;;;;;11.62;50.41;100649.40;125463;1096;26436;-63
2021/05/08 09:53:33;;;;;;;7.97;1.73;;;;;;;11.69;50.17;100655.42;125564;1104;22764;-63
2021/05/08 09:56:03;;;;;;;6.23;1.30;;;;;;;11.67;50.57;100643.95;125542;1104;22758;-63
2021/05/08 09:58:37;;;;;;;5.30;1.50;;;;;;;11.57;49.29;100652.84;125758;1104;22874;-62
2021/05/08 10:01:20;;;;;;;7.50;1.50;;;;;;;11.56;50.02;100652.09;125776;1104;22756;-63
2021/05/08 10:03:50;;;;;;;6.10;1.80;;;;;;;11.69;49.29;100649.83;125562;1096;27495;-63
2021/05/08 10:06:22;;;;;;;8.40;1.50;;;;;;;11.74;49.28;100651.20;125463;1096;28466;-62
2021/05/08 10:08:51;;;;;;;6.30;1.83;;;;;;;11.80;49.40;100646.50;125458;1097;25877;-62
2021/05/08 10:11:21;;;;;;;6.53;1.83;;;;;;;11.86;47.47;100650.95;125442;1105;22794;-62
2021/05/08 10:13:51;;;;;;;7.40;1.70;;;;;;;11.86;48.08;100636.19;125542;1099;22837;-63
2021/05/08 10:16:21;;;;;;;8.03;1.90;;;;;;;11.85;47.98;100638.23;125458;1096;26270;-63
2021/05/08 10:18:51;;;;;;;5.18;1.80;;;;;;;11.87;47.77;100643.34;125591;1096;26665;-64
2021/05/08 10:21:22;;;;;;;7.00;1.80;;;;;;;11.93;46.34;100644.23;125715;1104;23070;-62
2021/05/08 10:23:52;;;;;;;6.30;1.93;;;;;;;11.83;46.21;100635.14;125876;1104;24614;-64
2021/05/08 10:26:22;;;;;;;6.18;1.70;;;;;;;11.85;47.26;100632.64;125540;1104;24293;-64
2021/05/08 10:28:54;;;;;;;5.73;1.53;;;;;;;11.88;47.42;100628.88;125542;1104;22740;-62
2021/05/08 10:31:25;;;;;;;6.30;1.73;;;;;;;12.01;46.13;100634.98;125634;1098;27120;-62
2021/05/08 10:33:56;;;;;;;6.13;1.73;;;;;;;12.15;47.31;100627.86;125821;1104;22841;-63
2021/05/08 10:36:46;;;;;;;6.30;2.05;;;;;;;12.30;46.59;100628.66;125816;1104;23436;-63
2021/05/08 10:39:17;;;;;;;7.97;2.23;;;;;;;12.38;44.89;100621.41;125542;1096;26266;-63
2021/05/08 10:41:54;;;;;;;6.65;2.10;;;;;;;12.31;45.77;100609.84;125517;1096;22775;-61
2021/05/08 10:44:44;;;;;;;6.90;1.90;;;;;;;12.30;45.34;100616.67;125637;1099;22819;-62
2021/05/08 10:47:14;;;;;;;5.93;2.10;;;;;;;12.29;45.85;100618.70;125443;1104;22973;-62
2021/05/08 10:50:04;;;;;;;7.33;2.05;;;;;;;12.34;45.54;100620.83;125553;1096;22822;-62
2021/05/08 10:53:05;;;;;;;7.07;2.00;;;;;;;12.34;44.60;100626.44;125533;1104;22770;-62
2021/05/08 10:55:47;;;;;;;7.90;2.03;;;;;;;12.23;44.38;100623.42;125420;1096;27311;-62
2021/05/08 10:58:39;;;;;;;8.35;2.25;;;;;;;12.16;43.99;100623.82;125743;1101;22815;-62
2021/05/08 11:01:13;;;;;;;9.60;2.25;;;;;;;12.06;45.61;100627.95;125563;1104;22771;-62
2021/05/08 11:04:04;;;;;;;10.47;2.30;;;;;;;12.05;45.19;100624.38;125599;1096;27163;-62
2021/05/08 11:06:35;;;;;;;8.15;2.10;;;;;;;12.09;45.84;100624.19;125541;1104;22758;-62
2021/05/08 11:09:27;;;;;;;8.65;2.75;;;;;;;12.13;45.23;100616.38;125578;1096;22803;-61
2021/05/08 11:11:57;;;;;;;8.73;2.23;;;;;;;12.16;44.43;100604.23;125436;1104;22737;-64
2021/05/08 11:14:43;;;;;;;;;;;;;;;12.29;45.23;100609.55;125622;1104;22734;-63
2021/05/08 11:17:14;;;;;;;6.50;1.90;;;;;;;12.47;44.40;100606.55;125840;1096;21525;-61
2021/05/08 11:19:44;;;;;;;7.27;1.80;;;;;;;12.64;44.18;100613.20;125589;1099;26200;-62
2021/05/08 11:22:16;;;;;;;6.53;1.83;;;;;;;12.67;43.64;100604.60;125691;1102;22754;-63
2021/05/08 11:24:48;;;;;;;7.20;1.97;;;;;;;12.63;42.19;100606.83;125652;1102;22901;-62
2021/05/08 11:27:28;;;;;;;8.23;2.47;;;;;;;12.61;41.86;100616.97;125592;1096;26234;-62
2021/05/08 11:30:08;;;;;;;8.10;2.57;;;;;;;12.54;41.91;100608.97;125488;1104;22822;-64
2021/05/08 11:32:48;;;;;;;8.23;2.73;;;;;;;12.51;42.34;100618.33;125574;1104;22809;-63
2021/05/08 11:35:29;;;;;;;6.58;2.45;;;;;;;12.51;43.15;100607.91;125565;1104;22761;-63
2021/05/08 11:38:21;;;;;;;6.97;2.23;;;;;;;12.54;42.65;100618.13;125661;1096;28432;-62
2021/05/08 11:40:54;;;;;;;8.73;2.13;;;;;;;12.40;42.08;100604.13;125626;1104;24423;-63
2021/05/08 11:43:28;;;;;;;7.00;2.35;;;;;;;12.20;42.28;100604.81;125642;1104;23195;-64
2021/05/08 11:45:58;;;;;;;6.60;2.30;;;;;;;12.15;43.22;100603.45;125546;1096;27300;-63
2021/05/08 11:48:27;;;;;;;7.68;2.28;;;;;;;12.18;43.12;100596.13;125668;1104;22935;-63
2021/05/08 11:50:59;;;;;;;7.70;2.37;;;;;;;12.24;43.08;100593.41;125467;1104;22803;-63
2021/05/08 11:53:29;;;;;;;6.97;1.90;;;;;;;12.27;41.75;100600.86;125530;1102;22859;-62
2021/05/08 11:55:59;;;;;;;6.35;2.10;;;;;;;12.32;43.13;100591.77;125556;1104;23000;-62
2021/05/08 11:58:28;;;;;;;8.83;2.37;;;;;;;12.44;42.47;100590.70;125597;1104;22761;-62
2021/05/08 12:00:58;;;;;;;6.97;2.30;;;;;;;12.62;42.80;100591.27;125493;1104;22855;-61
2021/05/08 12:03:29;;;;;;;7.48;2.25;;;;;;;12.81;42.20;100598.20;125488;1102;26097;-61
2021/05/08 12:05:58;;;;;;;10.25;2.40;;;;;;;12.93;41.90;100604.77;125653;1103;22776;-61
2021/05/08 12:08:29;;;;;;;7.80;2.20;;;;;;;12.95;42.22;100600.19;125519;1097;26909;-62
2021/05/08 12:10:58;;;;;;;7.60;2.90;;;;;;;12.94;41.80;100601.47;125473;1097;25826;-61
2021/05/08 12:13:31;;;;;;;;;;;;;;;12.91;42.11;100591.22;125751;1104;22741;-61
2021/05/08 12:16:04;;;;;;;8.40;2.80;;;;;;;12.91;42.38;100588.41;125508;1102;21642;-61
2021/05/08 12:18:35;;;;;;;8.30;2.65;;;;;;;12.89;41.40;100592.98;125521;1104;24433;-61
2021/05/08 12:21:06;;;;;;;8.00;2.83;;;;;;;12.81;41.22;100586.21;125582;1104;22794;-63
2021/05/08 12:23:38;;;;;;;7.15;2.85;;;;;;;12.70;41.10;100586.05;125535;1104;22933;-62
2021/05/08 12:26:14;;;;;;;11.80;2.85;;;;;;;12.61;41.76;100575.73;125538;1102;22762;-61
2021/05/08 12:28:56;;;;;;;6.55;2.30;;;;;;;12.57;41.06;100575.16;125499;1096;22884;-63